sensor_id;sensor_type;location;lat;lon;timestamp;P1;durP1;ratioP1;P2;durP2;ratioP2
36829;SDS011;22767;47.328;9.640;2023-05-07T00:00:58;2.20;;;1.00;;
36829;SDS011;22767;47.328;9.640;2023-05-07T00:03:24;0.95;;;0.70;;
36829;SDS011;22767;47.328;9.640;2023-05-07T00:05:51;2.53;;;1.00;;
36829;SDS011;22767;47.328;9.640;2023-05-07T00:08:18;1.52;;;1.00;;
36829;SDS011;22767;47.328;9.640;2023-05-07T00:10:45;1.23;;;0.85;;
36829;SDS011;22767;47.328;9.640;2023-05-07T00:13:11;3.28;;;1.08;;
36829;SDS011;22767;47.328;9.640;2023-05-07T00:15:37;1.15;;;0.80;;
36829;SDS011;22767;47.328;9.640;2023-05-07T00:18:03;2.75;;;1.20;;
36829;SDS011;22767;47.328;9.640;2023-05-07T00:20:29;2.08;;;1.15;;
36829;SDS011;22767;47.328;9.640;2023-05-07T00:22:56;2.22;;;1.33;;
36829;SDS011;22767;47.328;9.640;2023-05-07T00:25:22;4.10;;;1.38;;
36829;SDS011;22767;47.328;9.640;2023-05-07T00:27:48;1.88;;;1.38;;
36829;SDS011;22767;47.328;9.640;2023-05-07T00:30:14;2.47;;;1.20;;
36829;SDS011;22767;47.328;9.640;2023-05-07T00:32:40;2.95;;;1.00;;
36829;SDS011;22767;47.328;9.640;2023-05-07T00:35:06;2.70;;;1.10;;
36829;SDS011;22767;47.328;9.640;2023-05-07T00:37:33;3.42;;;1.02;;
36829;SDS011;22767;47.328;9.640;2023-05-07T00:39:59;2.90;;;1.00;;
36829;SDS011;22767;47.328;9.640;2023-05-07T00:42:25;1.70;;;0.80;;
36829;SDS011;22767;47.328;9.640;2023-05-07T00:44:51;6.15;;;1.00;;
36829;SDS011;22767;47.328;9.640;2023-05-07T00:47:17;3.58;;;1.00;;
36829;SDS011;22767;47.328;9.640;2023-05-07T00:49:43;3.33;;;1.10;;
36829;SDS011;22767;47.328;9.640;2023-05-07T00:52:14;3.03;;;1.20;;
36829;SDS011;22767;47.328;9.640;2023-05-07T00:54:41;3.58;;;1.08;;
36829;SDS011;22767;47.328;9.640;2023-05-07T00:57:07;4.68;;;0.80;;
36829;SDS011;22767;47.328;9.640;2023-05-07T00:59:35;4.40;;;1.15;;
36829;SDS011;22767;47.328;9.640;2023-05-07T01:02:01;3.65;;;1.00;;
36829;SDS011;22767;47.328;9.640;2023-05-07T01:04:27;1.92;;;0.95;;
36829;SDS011;22767;47.328;9.640;2023-05-07T01:06:56;3.78;;;1.08;;
36829;SDS011;22767;47.328;9.640;2023-05-07T01:09:23;2.65;;;1.10;;
36829;SDS011;22767;47.328;9.640;2023-05-07T01:11:50;3.75;;;1.23;;
36829;SDS011;22767;47.328;9.640;2023-05-07T01:14:17;2.95;;;1.08;;
36829;SDS011;22767;47.328;9.640;2023-05-07T01:16:43;1.85;;;0.90;;
36829;SDS011;22767;47.328;9.640;2023-05-07T01:19:09;6.32;;;1.13;;
36829;SDS011;22767;47.328;9.640;2023-05-07T01:21:39;2.28;;;1.13;;
36829;SDS011;22767;47.328;9.640;2023-05-07T01:24:08;1.13;;;0.77;;
36829;SDS011;22767;47.328;9.640;2023-05-07T01:26:34;1.50;;;0.85;;
36829;SDS011;22767;47.328;9.640;2023-05-07T01:29:00;3.25;;;0.73;;
36829;SDS011;22767;47.328;9.640;2023-05-07T01:31:26;4.30;;;1.27;;
36829;SDS011;22767;47.328;9.640;2023-05-07T01:33:52;4.90;;;1.00;;
36829;SDS011;22767;47.328;9.640;2023-05-07T01:36:19;2.45;;;0.82;;
36829;SDS011;22767;47.328;9.640;2023-05-07T01:38:46;3.95;;;1.00;;
36829;SDS011;22767;47.328;9.640;2023-05-07T01:41:12;3.40;;;1.20;;
36829;SDS011;22767;47.328;9.640;2023-05-07T01:43:39;3.35;;;1.08;;
36829;SDS011;22767;47.328;9.640;2023-05-07T01:46:06;2.72;;;0.80;;
36829;SDS011;22767;47.328;9.640;2023-05-07T01:48:32;1.02;;;0.80;;
36829;SDS011;22767;47.328;9.640;2023-05-07T01:50:58;0.98;;;0.88;;
36829;SDS011;22767;47.328;9.640;2023-05-07T01:53:26;2.45;;;0.85;;
36829;SDS011;22767;47.328;9.640;2023-05-07T01:55:53;7.88;;;1.15;;
36829;SDS011;22767;47.328;9.640;2023-05-07T01:58:19;3.92;;;1.10;;
36829;SDS011;22767;47.328;9.640;2023-05-07T02:00:45;3.10;;;0.82;;
36829;SDS011;22767;47.328;9.640;2023-05-07T02:03:11;0.90;;;0.85;;
36829;SDS011;22767;47.328;9.640;2023-05-07T02:05:37;1.27;;;0.80;;
36829;SDS011;22767;47.328;9.640;2023-05-07T02:08:03;4.20;;;1.10;;
36829;SDS011;22767;47.328;9.640;2023-05-07T02:10:29;4.28;;;0.98;;
36829;SDS011;22767;47.328;9.640;2023-05-07T02:12:55;0.88;;;0.50;;
36829;SDS011;22767;47.328;9.640;2023-05-07T02:15:21;4.20;;;1.00;;
36829;SDS011;22767;47.328;9.640;2023-05-07T02:18:02;0.90;;;0.80;;
36829;SDS011;22767;47.328;9.640;2023-05-07T02:20:29;3.65;;;1.00;;
36829;SDS011;22767;47.328;9.640;2023-05-07T02:22:55;2.45;;;0.70;;
36829;SDS011;22767;47.328;9.640;2023-05-07T02:25:21;1.83;;;0.77;;
36829;SDS011;22767;47.328;9.640;2023-05-07T02:27:47;1.40;;;0.82;;
36829;SDS011;22767;47.328;9.640;2023-05-07T02:30:13;2.70;;;0.85;;
36829;SDS011;22767;47.328;9.640;2023-05-07T02:32:40;5.28;;;0.90;;
36829;SDS011;22767;47.328;9.640;2023-05-07T02:35:06;0.70;;;0.70;;
36829;SDS011;22767;47.328;9.640;2023-05-07T02:37:32;3.10;;;0.70;;
36829;SDS011;22767;47.328;9.640;2023-05-07T02:39:58;0.60;;;0.60;;
36829;SDS011;22767;47.328;9.640;2023-05-07T02:42:24;3.80;;;0.80;;
36829;SDS011;22767;47.328;9.640;2023-05-07T02:44:50;2.00;;;0.82;;
36829;SDS011;22767;47.328;9.640;2023-05-07T02:47:16;3.45;;;0.70;;
36829;SDS011;22767;47.328;9.640;2023-05-07T02:49:42;2.20;;;1.00;;
36829;SDS011;22767;47.328;9.640;2023-05-07T02:52:08;2.47;;;0.77;;
36829;SDS011;22767;47.328;9.640;2023-05-07T02:54:34;2.17;;;0.98;;
36829;SDS011;22767;47.328;9.640;2023-05-07T02:57:00;1.95;;;0.70;;
36829;SDS011;22767;47.328;9.640;2023-05-07T02:59:27;3.33;;;1.17;;
36829;SDS011;22767;47.328;9.640;2023-05-07T03:01:53;1.95;;;0.70;;
36829;SDS011;22767;47.328;9.640;2023-05-07T03:04:19;1.70;;;0.80;;
36829;SDS011;22767;47.328;9.640;2023-05-07T03:06:45;2.85;;;0.88;;
36829;SDS011;22767;47.328;9.640;2023-05-07T03:09:11;2.55;;;0.70;;
36829;SDS011;22767;47.328;9.640;2023-05-07T03:11:37;0.95;;;0.82;;
36829;SDS011;22767;47.328;9.640;2023-05-07T03:14:03;1.10;;;0.63;;
36829;SDS011;22767;47.328;9.640;2023-05-07T03:16:29;0.60;;;0.60;;
36829;SDS011;22767;47.328;9.640;2023-05-07T03:18:56;0.93;;;0.60;;
36829;SDS011;22767;47.328;9.640;2023-05-07T03:21:22;1.08;;;0.57;;
36829;SDS011;22767;47.328;9.640;2023-05-07T03:23:48;8.05;;;1.00;;
36829;SDS011;22767;47.328;9.640;2023-05-07T03:26:14;3.58;;;0.70;;
36829;SDS011;22767;47.328;9.640;2023-05-07T03:28:40;1.88;;;0.68;;
36829;SDS011;22767;47.328;9.640;2023-05-07T03:31:06;3.63;;;0.70;;
36829;SDS011;22767;47.328;9.640;2023-05-07T03:33:35;1.48;;;0.95;;
36829;SDS011;22767;47.328;9.640;2023-05-07T03:36:01;2.60;;;0.70;;
36829;SDS011;22767;47.328;9.640;2023-05-07T03:38:27;0.65;;;0.60;;
36829;SDS011;22767;47.328;9.640;2023-05-07T03:40:53;2.38;;;0.60;;
36829;SDS011;22767;47.328;9.640;2023-05-07T03:43:19;1.30;;;0.90;;
36829;SDS011;22767;47.328;9.640;2023-05-07T03:45:45;1.13;;;0.60;;
36829;SDS011;22767;47.328;9.640;2023-05-07T03:48:11;2.47;;;0.80;;
36829;SDS011;22767;47.328;9.640;2023-05-07T03:50:37;1.23;;;0.70;;
36829;SDS011;22767;47.328;9.640;2023-05-07T03:53:03;2.08;;;0.80;;
36829;SDS011;22767;47.328;9.640;2023-05-07T03:55:29;0.88;;;0.70;;
36829;SDS011;22767;47.328;9.640;2023-05-07T03:57:55;1.90;;;0.70;;
36829;SDS011;22767;47.328;9.640;2023-05-07T04:00:22;2.47;;;0.77;;
36829;SDS011;22767;47.328;9.640;2023-05-07T04:02:48;3.17;;;0.95;;
36829;SDS011;22767;47.328;9.640;2023-05-07T04:05:14;2.30;;;0.90;;
36829;SDS011;22767;47.328;9.640;2023-05-07T04:07:40;5.75;;;1.15;;
36829;SDS011;22767;47.328;9.640;2023-05-07T04:10:06;1.80;;;0.77;;
36829;SDS011;22767;47.328;9.640;2023-05-07T04:12:33;4.75;;;0.88;;
36829;SDS011;22767;47.328;9.640;2023-05-07T04:14:59;2.20;;;0.70;;
36829;SDS011;22767;47.328;9.640;2023-05-07T04:17:25;1.00;;;0.70;;
36829;SDS011;22767;47.328;9.640;2023-05-07T04:19:51;1.80;;;0.60;;
36829;SDS011;22767;47.328;9.640;2023-05-07T04:22:17;2.40;;;0.70;;
36829;SDS011;22767;47.328;9.640;2023-05-07T04:24:43;1.75;;;0.70;;
36829;SDS011;22767;47.328;9.640;2023-05-07T04:27:09;2.42;;;0.75;;
36829;SDS011;22767;47.328;9.640;2023-05-07T04:29:35;3.67;;;0.90;;
36829;SDS011;22767;47.328;9.640;2023-05-07T04:32:03;3.50;;;0.68;;
36829;SDS011;22767;47.328;9.640;2023-05-07T04:34:29;2.15;;;0.60;;
36829;SDS011;22767;47.328;9.640;2023-05-07T04:36:57;3.03;;;1.00;;
36829;SDS011;22767;47.328;9.640;2023-05-07T04:39:23;3.28;;;0.80;;
36829;SDS011;22767;47.328;9.640;2023-05-07T04:41:49;2.13;;;0.80;;
36829;SDS011;22767;47.328;9.640;2023-05-07T04:44:15;3.58;;;0.60;;
36829;SDS011;22767;47.328;9.640;2023-05-07T04:46:41;1.13;;;0.80;;
36829;SDS011;22767;47.328;9.640;2023-05-07T04:49:07;0.77;;;0.60;;
36829;SDS011;22767;47.328;9.640;2023-05-07T04:51:33;3.63;;;0.77;;
36829;SDS011;22767;47.328;9.640;2023-05-07T04:53:59;1.95;;;0.68;;
36829;SDS011;22767;47.328;9.640;2023-05-07T04:56:27;1.85;;;0.68;;
36829;SDS011;22767;47.328;9.640;2023-05-07T04:58:54;0.95;;;0.77;;
36829;SDS011;22767;47.328;9.640;2023-05-07T05:01:20;1.10;;;0.65;;
36829;SDS011;22767;47.328;9.640;2023-05-07T05:03:46;3.33;;;0.90;;
36829;SDS011;22767;47.328;9.640;2023-05-07T05:06:12;2.35;;;1.02;;
36829;SDS011;22767;47.328;9.640;2023-05-07T05:08:38;2.50;;;0.82;;
36829;SDS011;22767;47.328;9.640;2023-05-07T05:11:04;3.63;;;1.13;;
36829;SDS011;22767;47.328;9.640;2023-05-07T05:13:31;0.70;;;0.70;;
36829;SDS011;22767;47.328;9.640;2023-05-07T05:15:57;2.60;;;0.70;;
36829;SDS011;22767;47.328;9.640;2023-05-07T05:18:23;1.95;;;0.60;;
36829;SDS011;22767;47.328;9.640;2023-05-07T05:20:49;1.60;;;0.60;;
36829;SDS011;22767;47.328;9.640;2023-05-07T05:23:15;2.95;;;0.70;;
36829;SDS011;22767;47.328;9.640;2023-05-07T05:25:41;1.80;;;0.63;;
36829;SDS011;22767;47.328;9.640;2023-05-07T05:28:07;3.22;;;0.73;;
36829;SDS011;22767;47.328;9.640;2023-05-07T05:30:33;1.02;;;0.65;;
36829;SDS011;22767;47.328;9.640;2023-05-07T05:32:59;3.83;;;0.60;;
36829;SDS011;22767;47.328;9.640;2023-05-07T05:35:25;0.77;;;0.70;;
36829;SDS011;22767;47.328;9.640;2023-05-07T05:37:51;3.60;;;0.70;;
36829;SDS011;22767;47.328;9.640;2023-05-07T05:40:17;1.90;;;0.63;;
36829;SDS011;22767;47.328;9.640;2023-05-07T05:42:43;2.63;;;0.75;;
36829;SDS011;22767;47.328;9.640;2023-05-07T05:45:10;1.70;;;0.88;;
36829;SDS011;22767;47.328;9.640;2023-05-07T05:47:36;1.83;;;0.90;;
36829;SDS011;22767;47.328;9.640;2023-05-07T05:50:03;1.38;;;0.90;;
36829;SDS011;22767;47.328;9.640;2023-05-07T05:52:30;3.72;;;0.65;;
36829;SDS011;22767;47.328;9.640;2023-05-07T05:54:56;1.60;;;0.70;;
36829;SDS011;22767;47.328;9.640;2023-05-07T05:57:22;1.77;;;0.70;;
36829;SDS011;22767;47.328;9.640;2023-05-07T05:59:49;3.30;;;0.90;;
36829;SDS011;22767;47.328;9.640;2023-05-07T06:02:15;3.10;;;0.80;;
36829;SDS011;22767;47.328;9.640;2023-05-07T06:04:41;3.40;;;0.70;;
36829;SDS011;22767;47.328;9.640;2023-05-07T06:07:07;1.23;;;0.70;;
36829;SDS011;22767;47.328;9.640;2023-05-07T06:09:34;2.33;;;0.95;;
36829;SDS011;22767;47.328;9.640;2023-05-07T06:12:00;1.02;;;0.57;;
36829;SDS011;22767;47.328;9.640;2023-05-07T06:14:26;1.27;;;0.90;;
36829;SDS011;22767;47.328;9.640;2023-05-07T06:16:52;1.73;;;0.60;;
36829;SDS011;22767;47.328;9.640;2023-05-07T06:19:18;4.72;;;0.85;;
36829;SDS011;22767;47.328;9.640;2023-05-07T06:21:48;2.55;;;0.70;;
36829;SDS011;22767;47.328;9.640;2023-05-07T06:24:14;3.70;;;1.08;;
36829;SDS011;22767;47.328;9.640;2023-05-07T06:26:40;1.15;;;0.50;;
36829;SDS011;22767;47.328;9.640;2023-05-07T06:29:06;1.52;;;0.50;;
36829;SDS011;22767;47.328;9.640;2023-05-07T06:31:32;0.50;;;0.50;;
36829;SDS011;22767;47.328;9.640;2023-05-07T06:33:58;1.17;;;0.60;;
36829;SDS011;22767;47.328;9.640;2023-05-07T06:36:36;0.97;;;0.67;;
36829;SDS011;22767;47.328;9.640;2023-05-07T06:39:08;0.80;;;0.70;;
36829;SDS011;22767;47.328;9.640;2023-05-07T06:41:34;2.05;;;0.63;;
36829;SDS011;22767;47.328;9.640;2023-05-07T06:44:03;0.95;;;0.82;;
36829;SDS011;22767;47.328;9.640;2023-05-07T06:46:30;1.13;;;0.60;;
36829;SDS011;22767;47.328;9.640;2023-05-07T06:48:56;0.85;;;0.43;;
36829;SDS011;22767;47.328;9.640;2023-05-07T06:51:22;0.40;;;0.40;;
36829;SDS011;22767;47.328;9.640;2023-05-07T06:53:48;0.50;;;0.50;;
36829;SDS011;22767;47.328;9.640;2023-05-07T06:56:14;0.95;;;0.50;;
36829;SDS011;22767;47.328;9.640;2023-05-07T06:58:40;1.52;;;0.40;;
36829;SDS011;22767;47.328;9.640;2023-05-07T07:01:06;0.50;;;0.43;;
36829;SDS011;22767;47.328;9.640;2023-05-07T07:03:32;0.85;;;0.50;;
36829;SDS011;22767;47.328;9.640;2023-05-07T07:05:58;1.75;;;0.50;;
36829;SDS011;22767;47.328;9.640;2023-05-07T07:08:26;0.95;;;0.45;;
36829;SDS011;22767;47.328;9.640;2023-05-07T07:10:52;0.68;;;0.40;;
36829;SDS011;22767;47.328;9.640;2023-05-07T07:13:18;0.85;;;0.60;;
36829;SDS011;22767;47.328;9.640;2023-05-07T07:15:44;0.32;;;0.32;;
36829;SDS011;22767;47.328;9.640;2023-05-07T07:18:10;0.73;;;0.60;;
36829;SDS011;22767;47.328;9.640;2023-05-07T07:20:37;0.55;;;0.55;;
36829;SDS011;22767;47.328;9.640;2023-05-07T07:23:03;0.52;;;0.52;;
36829;SDS011;22767;47.328;9.640;2023-05-07T07:25:29;0.55;;;0.52;;
36829;SDS011;22767;47.328;9.640;2023-05-07T07:27:55;0.63;;;0.50;;
36829;SDS011;22767;47.328;9.640;2023-05-07T07:30:21;1.23;;;0.70;;
36829;SDS011;22767;47.328;9.640;2023-05-07T07:32:47;1.73;;;0.60;;
36829;SDS011;22767;47.328;9.640;2023-05-07T07:35:13;0.55;;;0.50;;
36829;SDS011;22767;47.328;9.640;2023-05-07T07:37:39;1.13;;;0.70;;
36829;SDS011;22767;47.328;9.640;2023-05-07T07:40:05;0.80;;;0.38;;
36829;SDS011;22767;47.328;9.640;2023-05-07T07:42:31;2.80;;;0.82;;
36829;SDS011;22767;47.328;9.640;2023-05-07T07:44:58;1.00;;;0.57;;
36829;SDS011;22767;47.328;9.640;2023-05-07T07:47:24;2.33;;;0.52;;
36829;SDS011;22767;47.328;9.640;2023-05-07T07:49:50;0.68;;;0.57;;
36829;SDS011;22767;47.328;9.640;2023-05-07T07:52:16;0.88;;;0.60;;
36829;SDS011;22767;47.328;9.640;2023-05-07T07:54:42;1.17;;;0.60;;
36829;SDS011;22767;47.328;9.640;2023-05-07T07:57:08;1.48;;;0.45;;
36829;SDS011;22767;47.328;9.640;2023-05-07T07:59:34;3.72;;;0.70;;
36829;SDS011;22767;47.328;9.640;2023-05-07T08:02:00;0.82;;;0.50;;
36829;SDS011;22767;47.328;9.640;2023-05-07T08:04:26;0.50;;;0.50;;
36829;SDS011;22767;47.328;9.640;2023-05-07T08:06:52;0.40;;;0.38;;
36829;SDS011;22767;47.328;9.640;2023-05-07T08:09:22;0.93;;;0.50;;
36829;SDS011;22767;47.328;9.640;2023-05-07T08:11:48;1.10;;;0.68;;
36829;SDS011;22767;47.328;9.640;2023-05-07T08:14:14;0.45;;;0.40;;
36829;SDS011;22767;47.328;9.640;2023-05-07T08:16:41;1.60;;;0.40;;
36829;SDS011;22767;47.328;9.640;2023-05-07T08:19:07;0.82;;;0.45;;
36829;SDS011;22767;47.328;9.640;2023-05-07T08:21:34;2.15;;;0.52;;
36829;SDS011;22767;47.328;9.640;2023-05-07T08:24:00;0.93;;;0.50;;
36829;SDS011;22767;47.328;9.640;2023-05-07T08:26:26;0.82;;;0.40;;
36829;SDS011;22767;47.328;9.640;2023-05-07T08:28:52;0.50;;;0.45;;
36829;SDS011;22767;47.328;9.640;2023-05-07T08:31:18;0.98;;;0.55;;
36829;SDS011;22767;47.328;9.640;2023-05-07T08:33:44;2.58;;;0.60;;
36829;SDS011;22767;47.328;9.640;2023-05-07T08:36:10;0.68;;;0.40;;
36829;SDS011;22767;47.328;9.640;2023-05-07T08:38:36;0.40;;;0.40;;
36829;SDS011;22767;47.328;9.640;2023-05-07T08:41:02;0.70;;;0.30;;
36829;SDS011;22767;47.328;9.640;2023-05-07T08:43:28;0.90;;;0.40;;
36829;SDS011;22767;47.328;9.640;2023-05-07T08:45:58;0.88;;;0.47;;
36829;SDS011;22767;47.328;9.640;2023-05-07T08:48:29;1.65;;;0.45;;
36829;SDS011;22767;47.328;9.640;2023-05-07T08:50:57;0.47;;;0.30;;
36829;SDS011;22767;47.328;9.640;2023-05-07T08:53:23;2.20;;;0.75;;
36829;SDS011;22767;47.328;9.640;2023-05-07T08:55:49;0.80;;;0.55;;
36829;SDS011;22767;47.328;9.640;2023-05-07T08:58:16;1.08;;;0.32;;
36829;SDS011;22767;47.328;9.640;2023-05-07T09:00:42;0.98;;;0.30;;
36829;SDS011;22767;47.328;9.640;2023-05-07T09:03:08;0.40;;;0.40;;
36829;SDS011;22767;47.328;9.640;2023-05-07T09:05:37;0.80;;;0.55;;
36829;SDS011;22767;47.328;9.640;2023-05-07T09:08:04;1.10;;;0.68;;
36829;SDS011;22767;47.328;9.640;2023-05-07T09:10:31;1.67;;;0.70;;
36829;SDS011;22767;47.328;9.640;2023-05-07T09:12:58;0.65;;;0.60;;
36829;SDS011;22767;47.328;9.640;2023-05-07T09:15:26;1.08;;;0.60;;
36829;SDS011;22767;47.328;9.640;2023-05-07T09:17:52;0.63;;;0.50;;
36829;SDS011;22767;47.328;9.640;2023-05-07T09:20:18;0.50;;;0.45;;
36829;SDS011;22767;47.328;9.640;2023-05-07T09:22:44;1.55;;;1.05;;
36829;SDS011;22767;47.328;9.640;2023-05-07T09:25:10;0.55;;;0.40;;
36829;SDS011;22767;47.328;9.640;2023-05-07T09:27:37;1.83;;;0.80;;
36829;SDS011;22767;47.328;9.640;2023-05-07T09:30:03;0.85;;;0.50;;
36829;SDS011;22767;47.328;9.640;2023-05-07T09:32:33;0.60;;;0.50;;
36829;SDS011;22767;47.328;9.640;2023-05-07T09:35:00;0.70;;;0.60;;
36829;SDS011;22767;47.328;9.640;2023-05-07T09:37:26;0.85;;;0.60;;
36829;SDS011;22767;47.328;9.640;2023-05-07T09:39:52;0.75;;;0.50;;
36829;SDS011;22767;47.328;9.640;2023-05-07T09:42:22;0.63;;;0.50;;
36829;SDS011;22767;47.328;9.640;2023-05-07T09:44:49;1.17;;;0.68;;
36829;SDS011;22767;47.328;9.640;2023-05-07T09:47:17;0.80;;;0.80;;
36829;SDS011;22767;47.328;9.640;2023-05-07T09:49:45;0.63;;;0.60;;
36829;SDS011;22767;47.328;9.640;2023-05-07T09:52:13;1.17;;;0.70;;
36829;SDS011;22767;47.328;9.640;2023-05-07T09:54:39;0.60;;;0.60;;
36829;SDS011;22767;47.328;9.640;2023-05-07T09:57:08;1.85;;;0.60;;
36829;SDS011;22767;47.328;9.640;2023-05-07T09:59:35;1.02;;;0.52;;
36829;SDS011;22767;47.328;9.640;2023-05-07T10:02:02;0.55;;;0.50;;
36829;SDS011;22767;47.328;9.640;2023-05-07T10:04:29;0.80;;;0.73;;
36829;SDS011;22767;47.328;9.640;2023-05-07T10:06:55;0.70;;;0.70;;
36829;SDS011;22767;47.328;9.640;2023-05-07T10:09:22;1.40;;;0.80;;
36829;SDS011;22767;47.328;9.640;2023-05-07T10:11:48;0.80;;;0.70;;
36829;SDS011;22767;47.328;9.640;2023-05-07T10:14:15;0.70;;;0.50;;
36829;SDS011;22767;47.328;9.640;2023-05-07T10:16:41;1.02;;;0.55;;
36829;SDS011;22767;47.328;9.640;2023-05-07T10:19:08;0.93;;;0.57;;
36829;SDS011;22767;47.328;9.640;2023-05-07T10:21:37;1.83;;;0.70;;
36829;SDS011;22767;47.328;9.640;2023-05-07T10:24:26;2.28;;;1.05;;
36829;SDS011;22767;47.328;9.640;2023-05-07T10:26:51;0.95;;;0.50;;
36829;SDS011;22767;47.328;9.640;2023-05-07T10:29:25;0.95;;;0.52;;
36829;SDS011;22767;47.328;9.640;2023-05-07T10:36:51;0.93;;;0.60;;
36829;SDS011;22767;47.328;9.640;2023-05-07T10:39:19;1.15;;;0.80;;
36829;SDS011;22767;47.328;9.640;2023-05-07T10:41:45;0.70;;;0.60;;
36829;SDS011;22767;47.328;9.640;2023-05-07T10:44:11;2.83;;;0.68;;
36829;SDS011;22767;47.328;9.640;2023-05-07T10:46:37;1.13;;;0.77;;
36829;SDS011;22767;47.328;9.640;2023-05-07T10:51:31;0.80;;;0.70;;
36829;SDS011;22767;47.328;9.640;2023-05-07T10:56:39;0.60;;;0.60;;
36829;SDS011;22767;47.328;9.640;2023-05-07T11:04:22;2.67;;;0.63;;
36829;SDS011;22767;47.328;9.640;2023-05-07T11:15:03;1.88;;;1.00;;
36829;SDS011;22767;47.328;9.640;2023-05-07T11:17:30;3.70;;;0.98;;
36829;SDS011;22767;47.328;9.640;2023-05-07T11:19:57;1.27;;;0.93;;
36829;SDS011;22767;47.328;9.640;2023-05-07T11:25:02;0.73;;;0.70;;
36829;SDS011;22767;47.328;9.640;2023-05-07T11:27:29;1.02;;;0.80;;
36829;SDS011;22767;47.328;9.640;2023-05-07T11:29:55;0.50;;;0.50;;
36829;SDS011;22767;47.328;9.640;2023-05-07T11:32:28;1.52;;;0.70;;
36829;SDS011;22767;47.328;9.640;2023-05-07T11:34:55;1.70;;;0.70;;
36829;SDS011;22767;47.328;9.640;2023-05-07T11:37:21;2.67;;;1.10;;
36829;SDS011;22767;47.328;9.640;2023-05-07T11:39:48;0.82;;;0.80;;
36829;SDS011;22767;47.328;9.640;2023-05-07T11:42:29;0.90;;;0.80;;
36829;SDS011;22767;47.328;9.640;2023-05-07T11:44:56;0.82;;;0.57;;
36829;SDS011;22767;47.328;9.640;2023-05-07T11:47:22;0.40;;;0.40;;
36829;SDS011;22767;47.328;9.640;2023-05-07T11:49:48;0.50;;;0.50;;
36829;SDS011;22767;47.328;9.640;2023-05-07T11:52:15;1.35;;;0.80;;
36829;SDS011;22767;47.328;9.640;2023-05-07T11:54:41;1.40;;;0.80;;
36829;SDS011;22767;47.328;9.640;2023-05-07T11:57:13;2.10;;;0.90;;
36829;SDS011;22767;47.328;9.640;2023-05-07T11:59:40;1.25;;;0.82;;
36829;SDS011;22767;47.328;9.640;2023-05-07T12:02:06;2.03;;;0.95;;
36829;SDS011;22767;47.328;9.640;2023-05-07T12:04:33;2.00;;;0.80;;
36829;SDS011;22767;47.328;9.640;2023-05-07T12:06:59;1.52;;;0.80;;
36829;SDS011;22767;47.328;9.640;2023-05-07T12:09:26;0.82;;;0.75;;
36829;SDS011;22767;47.328;9.640;2023-05-07T12:11:52;2.03;;;1.15;;
36829;SDS011;22767;47.328;9.640;2023-05-07T12:14:18;3.60;;;0.77;;
36829;SDS011;22767;47.328;9.640;2023-05-07T12:16:44;0.85;;;0.80;;
36829;SDS011;22767;47.328;9.640;2023-05-07T12:19:11;1.15;;;0.80;;
36829;SDS011;22767;47.328;9.640;2023-05-07T12:21:37;1.08;;;0.80;;
36829;SDS011;22767;47.328;9.640;2023-05-07T12:24:04;2.28;;;0.82;;
36829;SDS011;22767;47.328;9.640;2023-05-07T12:26:30;1.10;;;0.70;;
36829;SDS011;22767;47.328;9.640;2023-05-07T12:28:59;2.35;;;1.00;;
36829;SDS011;22767;47.328;9.640;2023-05-07T12:31:25;1.45;;;0.70;;
36829;SDS011;22767;47.328;9.640;2023-05-07T12:33:51;0.93;;;0.75;;
36829;SDS011;22767;47.328;9.640;2023-05-07T12:36:18;1.35;;;0.82;;
36829;SDS011;22767;47.328;9.640;2023-05-07T12:38:46;1.00;;;0.77;;
36829;SDS011;22767;47.328;9.640;2023-05-07T12:41:15;0.77;;;0.60;;
36829;SDS011;22767;47.328;9.640;2023-05-07T12:43:44;1.40;;;0.60;;
36829;SDS011;22767;47.328;9.640;2023-05-07T12:46:11;1.75;;;0.80;;
36829;SDS011;22767;47.328;9.640;2023-05-07T12:48:43;0.88;;;0.70;;
36829;SDS011;22767;47.328;9.640;2023-05-07T12:51:11;2.50;;;0.70;;
36829;SDS011;22767;47.328;9.640;2023-05-07T12:53:41;0.75;;;0.60;;
36829;SDS011;22767;47.328;9.640;2023-05-07T12:56:08;1.38;;;0.70;;
36829;SDS011;22767;47.328;9.640;2023-05-07T12:58:34;0.98;;;0.80;;
36829;SDS011;22767;47.328;9.640;2023-05-07T13:01:05;1.00;;;0.70;;
36829;SDS011;22767;47.328;9.640;2023-05-07T13:03:33;2.58;;;0.60;;
36829;SDS011;22767;47.328;9.640;2023-05-07T13:06:00;0.93;;;0.57;;
36829;SDS011;22767;47.328;9.640;2023-05-07T13:08:36;1.20;;;0.70;;
36829;SDS011;22767;47.328;9.640;2023-05-07T13:11:06;0.98;;;0.80;;
36829;SDS011;22767;47.328;9.640;2023-05-07T13:13:33;2.83;;;1.05;;
36829;SDS011;22767;47.328;9.640;2023-05-07T13:16:03;1.52;;;0.88;;
36829;SDS011;22767;47.328;9.640;2023-05-07T13:18:30;1.00;;;0.90;;
36829;SDS011;22767;47.328;9.640;2023-05-07T13:20:56;1.20;;;0.73;;
36829;SDS011;22767;47.328;9.640;2023-05-07T13:23:23;2.28;;;0.80;;
36829;SDS011;22767;47.328;9.640;2023-05-07T13:25:49;1.23;;;0.90;;
36829;SDS011;22767;47.328;9.640;2023-05-07T13:28:17;2.55;;;0.73;;
36829;SDS011;22767;47.328;9.640;2023-05-07T13:30:44;1.30;;;0.80;;
36829;SDS011;22767;47.328;9.640;2023-05-07T13:33:10;1.25;;;0.77;;
36829;SDS011;22767;47.328;9.640;2023-05-07T13:35:36;3.40;;;0.93;;
36829;SDS011;22767;47.328;9.640;2023-05-07T13:38:02;1.27;;;1.00;;
36829;SDS011;22767;47.328;9.640;2023-05-07T13:40:28;1.10;;;1.08;;
36829;SDS011;22767;47.328;9.640;2023-05-07T13:42:56;0.82;;;0.82;;
36829;SDS011;22767;47.328;9.640;2023-05-07T13:45:23;2.00;;;1.20;;
36829;SDS011;22767;47.328;9.640;2023-05-07T13:47:51;3.38;;;1.10;;
36829;SDS011;22767;47.328;9.640;2023-05-07T13:50:17;1.00;;;0.95;;
36829;SDS011;22767;47.328;9.640;2023-05-07T13:52:43;3.10;;;1.30;;
36829;SDS011;22767;47.328;9.640;2023-05-07T13:55:18;1.85;;;1.33;;
36829;SDS011;22767;47.328;9.640;2023-05-07T13:57:45;2.13;;;1.15;;
36829;SDS011;22767;47.328;9.640;2023-05-07T14:00:11;2.65;;;1.20;;
36829;SDS011;22767;47.328;9.640;2023-05-07T14:02:37;2.25;;;1.20;;
36829;SDS011;22767;47.328;9.640;2023-05-07T14:05:04;2.25;;;1.13;;
36829;SDS011;22767;47.328;9.640;2023-05-07T14:07:30;1.98;;;0.90;;
36829;SDS011;22767;47.328;9.640;2023-05-07T14:09:56;1.73;;;1.08;;
36829;SDS011;22767;47.328;9.640;2023-05-07T14:12:22;1.83;;;1.23;;
36829;SDS011;22767;47.328;9.640;2023-05-07T14:14:48;3.85;;;1.30;;
36829;SDS011;22767;47.328;9.640;2023-05-07T14:17:18;2.90;;;1.25;;
36829;SDS011;22767;47.328;9.640;2023-05-07T14:19:44;2.35;;;1.13;;
36829;SDS011;22767;47.328;9.640;2023-05-07T14:22:10;1.60;;;1.40;;
36829;SDS011;22767;47.328;9.640;2023-05-07T14:24:36;1.20;;;1.10;;
36829;SDS011;22767;47.328;9.640;2023-05-07T14:27:03;1.92;;;1.42;;
36829;SDS011;22767;47.328;9.640;2023-05-07T14:29:29;1.48;;;1.13;;
36829;SDS011;22767;47.328;9.640;2023-05-07T14:31:55;1.35;;;1.10;;
36829;SDS011;22767;47.328;9.640;2023-05-07T14:34:21;2.28;;;1.20;;
36829;SDS011;22767;47.328;9.640;2023-05-07T14:36:47;2.05;;;1.30;;
36829;SDS011;22767;47.328;9.640;2023-05-07T14:39:13;1.23;;;1.13;;
36829;SDS011;22767;47.328;9.640;2023-05-07T14:41:40;1.73;;;1.60;;
36829;SDS011;22767;47.328;9.640;2023-05-07T14:44:06;1.65;;;1.40;;
36829;SDS011;22767;47.328;9.640;2023-05-07T14:46:32;2.70;;;1.42;;
36829;SDS011;22767;47.328;9.640;2023-05-07T14:48:58;3.88;;;1.70;;
36829;SDS011;22767;47.328;9.640;2023-05-07T14:51:24;3.35;;;1.65;;
36829;SDS011;22767;47.328;9.640;2023-05-07T14:53:50;2.45;;;1.60;;
36829;SDS011;22767;47.328;9.640;2023-05-07T14:56:16;2.60;;;1.58;;
36829;SDS011;22767;47.328;9.640;2023-05-07T14:58:43;2.90;;;1.27;;
36829;SDS011;22767;47.328;9.640;2023-05-07T15:01:09;2.08;;;1.70;;
36829;SDS011;22767;47.328;9.640;2023-05-07T15:03:35;1.70;;;1.58;;
36829;SDS011;22767;47.328;9.640;2023-05-07T15:06:02;3.28;;;1.70;;
36829;SDS011;22767;47.328;9.640;2023-05-07T15:08:28;2.33;;;1.80;;
36829;SDS011;22767;47.328;9.640;2023-05-07T15:10:54;4.10;;;1.58;;